sensor_id;sensor_type;location;lat;lon;timestamp;P1;durP1;ratioP1;P2;durP2;ratioP2
22656;SDS011;11495;55.610;12.100;2023-07-16T00:00:27;1.70;;;1.60;;
22656;SDS011;11495;55.610;12.100;2023-07-16T00:02:52;3.10;;;1.80;;
22656;SDS011;11495;55.610;12.100;2023-07-16T00:05:17;2.70;;;2.30;;
22656;SDS011;11495;55.610;12.100;2023-07-16T00:07:43;2.47;;;2.28;;
22656;SDS011;11495;55.610;12.100;2023-07-16T00:10:08;2.22;;;1.90;;
22656;SDS011;11495;55.610;12.100;2023-07-16T00:12:33;1.87;;;1.77;;
22656;SDS011;11495;55.610;12.100;2023-07-16T00:14:59;1.93;;;1.70;;
22656;SDS011;11495;55.610;12.100;2023-07-16T00:17:24;2.30;;;1.90;;
22656;SDS011;11495;55.610;12.100;2023-07-16T00:19:49;3.55;;;2.15;;
22656;SDS011;11495;55.610;12.100;2023-07-16T00:22:15;2.23;;;2.00;;
22656;SDS011;11495;55.610;12.100;2023-07-16T00:24:40;2.97;;;2.00;;
22656;SDS011;11495;55.610;12.100;2023-07-16T00:27:05;2.63;;;1.77;;
22656;SDS011;11495;55.610;12.100;2023-07-16T00:29:30;1.42;;;1.30;;
22656;SDS011;11495;55.610;12.100;2023-07-16T00:31:56;1.60;;;1.50;;
22656;SDS011;11495;55.610;12.100;2023-07-16T00:34:21;1.73;;;1.43;;
22656;SDS011;11495;55.610;12.100;2023-07-16T00:36:46;2.37;;;1.40;;
22656;SDS011;11495;55.610;12.100;2023-07-16T00:39:11;1.37;;;1.27;;
22656;SDS011;11495;55.610;12.100;2023-07-16T00:41:37;4.37;;;1.63;;
22656;SDS011;11495;55.610;12.100;2023-07-16T00:44:02;4.53;;;1.97;;
22656;SDS011;11495;55.610;12.100;2023-07-16T00:46:27;1.80;;;1.35;;
22656;SDS011;11495;55.610;12.100;2023-07-16T00:48:53;3.58;;;1.90;;
22656;SDS011;11495;55.610;12.100;2023-07-16T00:51:18;3.43;;;1.70;;
22656;SDS011;11495;55.610;12.100;2023-07-16T00:53:44;2.90;;;1.95;;
22656;SDS011;11495;55.610;12.100;2023-07-16T00:56:10;3.72;;;1.67;;
22656;SDS011;11495;55.610;12.100;2023-07-16T00:58:35;2.60;;;1.30;;
22656;SDS011;11495;55.610;12.100;2023-07-16T01:01:00;2.23;;;1.50;;
22656;SDS011;11495;55.610;12.100;2023-07-16T01:03:25;2.20;;;1.67;;
22656;SDS011;11495;55.610;12.100;2023-07-16T01:08:33;1.95;;;1.48;;
22656;SDS011;11495;55.610;12.100;2023-07-16T01:11:00;2.15;;;1.65;;
22656;SDS011;11495;55.610;12.100;2023-07-16T01:13:26;2.67;;;1.92;;
22656;SDS011;11495;55.610;12.100;2023-07-16T01:15:52;2.53;;;1.70;;
22656;SDS011;11495;55.610;12.100;2023-07-16T01:18:17;1.62;;;1.52;;
22656;SDS011;11495;55.610;12.100;2023-07-16T01:20:42;3.72;;;1.80;;
22656;SDS011;11495;55.610;12.100;2023-07-16T01:25:53;1.52;;;1.40;;
22656;SDS011;11495;55.610;12.100;2023-07-16T01:28:26;2.80;;;1.95;;
22656;SDS011;11495;55.610;12.100;2023-07-16T01:30:53;1.95;;;1.67;;
22656;SDS011;11495;55.610;12.100;2023-07-16T01:33:20;2.25;;;1.90;;
22656;SDS011;11495;55.610;12.100;2023-07-16T01:35:45;1.42;;;1.33;;
22656;SDS011;11495;55.610;12.100;2023-07-16T01:38:12;2.42;;;1.42;;
22656;SDS011;11495;55.610;12.100;2023-07-16T01:40:37;4.70;;;1.37;;
22656;SDS011;11495;55.610;12.100;2023-07-16T01:43:03;2.33;;;1.25;;
22656;SDS011;11495;55.610;12.100;2023-07-16T01:45:28;3.40;;;1.12;;
22656;SDS011;11495;55.610;12.100;2023-07-16T01:50:38;2.30;;;1.40;;
22656;SDS011;11495;55.610;12.100;2023-07-16T01:53:04;1.85;;;1.25;;
22656;SDS011;11495;55.610;12.100;2023-07-16T01:55:29;3.97;;;1.10;;
22656;SDS011;11495;55.610;12.100;2023-07-16T01:57:54;2.37;;;1.33;;
22656;SDS011;11495;55.610;12.100;2023-07-16T02:00:19;1.70;;;0.90;;
22656;SDS011;11495;55.610;12.100;2023-07-16T02:02:45;1.23;;;0.80;;
22656;SDS011;11495;55.610;12.100;2023-07-16T02:05:10;1.08;;;0.88;;
22656;SDS011;11495;55.610;12.100;2023-07-16T02:07:36;1.15;;;0.90;;
22656;SDS011;11495;55.610;12.100;2023-07-16T02:10:01;4.00;;;0.75;;
22656;SDS011;11495;55.610;12.100;2023-07-16T02:12:27;2.15;;;0.90;;
22656;SDS011;11495;55.610;12.100;2023-07-16T02:14:52;2.13;;;1.10;;
22656;SDS011;11495;55.610;12.100;2023-07-16T02:17:18;0.93;;;0.83;;
22656;SDS011;11495;55.610;12.100;2023-07-16T02:19:43;0.82;;;0.65;;
22656;SDS011;11495;55.610;12.100;2023-07-16T02:22:08;1.50;;;0.97;;
22656;SDS011;11495;55.610;12.100;2023-07-16T02:24:33;0.73;;;0.68;;
22656;SDS011;11495;55.610;12.100;2023-07-16T02:26:59;1.52;;;0.95;;
22656;SDS011;11495;55.610;12.100;2023-07-16T02:29:24;3.85;;;1.45;;
22656;SDS011;11495;55.610;12.100;2023-07-16T02:31:49;2.07;;;1.20;;
22656;SDS011;11495;55.610;12.100;2023-07-16T02:34:14;5.00;;;1.60;;
22656;SDS011;11495;55.610;12.100;2023-07-16T02:36:40;1.23;;;0.90;;
22656;SDS011;11495;55.610;12.100;2023-07-16T02:39:05;1.00;;;0.87;;
22656;SDS011;11495;55.610;12.100;2023-07-16T02:41:30;1.00;;;0.90;;
22656;SDS011;11495;55.610;12.100;2023-07-16T02:44:04;0.93;;;0.60;;
22656;SDS011;11495;55.610;12.100;2023-07-16T02:48:54;1.13;;;0.80;;
22656;SDS011;11495;55.610;12.100;2023-07-16T02:51:20;3.25;;;0.90;;
22656;SDS011;11495;55.610;12.100;2023-07-16T02:53:45;3.05;;;0.90;;
22656;SDS011;11495;55.610;12.100;2023-07-16T02:56:10;1.17;;;0.55;;
22656;SDS011;11495;55.610;12.100;2023-07-16T02:58:35;1.47;;;0.83;;
22656;SDS011;11495;55.610;12.100;2023-07-16T03:01:01;1.87;;;0.90;;
22656;SDS011;11495;55.610;12.100;2023-07-16T03:03:26;2.03;;;1.03;;
22656;SDS011;11495;55.610;12.100;2023-07-16T03:05:51;0.68;;;0.68;;
22656;SDS011;11495;55.610;12.100;2023-07-16T03:08:17;0.60;;;0.60;;
22656;SDS011;11495;55.610;12.100;2023-07-16T03:10:42;2.87;;;1.10;;
22656;SDS011;11495;55.610;12.100;2023-07-16T03:13:07;0.80;;;0.60;;
22656;SDS011;11495;55.610;12.100;2023-07-16T03:15:32;1.37;;;0.90;;
22656;SDS011;11495;55.610;12.100;2023-07-16T03:17:58;1.10;;;0.75;;
22656;SDS011;11495;55.610;12.100;2023-07-16T03:20:23;0.53;;;0.53;;
22656;SDS011;11495;55.610;12.100;2023-07-16T03:22:48;1.40;;;0.90;;
22656;SDS011;11495;55.610;12.100;2023-07-16T03:25:13;1.23;;;0.80;;
22656;SDS011;11495;55.610;12.100;2023-07-16T03:27:39;1.02;;;0.60;;
22656;SDS011;11495;55.610;12.100;2023-07-16T03:30:05;2.10;;;0.90;;
22656;SDS011;11495;55.610;12.100;2023-07-16T03:32:30;1.60;;;0.77;;
22656;SDS011;11495;55.610;12.100;2023-07-16T03:34:56;2.80;;;0.90;;
22656;SDS011;11495;55.610;12.100;2023-07-16T03:37:21;1.12;;;0.90;;
22656;SDS011;11495;55.610;12.100;2023-07-16T03:39:46;2.57;;;1.00;;
22656;SDS011;11495;55.610;12.100;2023-07-16T03:42:11;0.63;;;0.63;;
22656;SDS011;11495;55.610;12.100;2023-07-16T03:44:37;5.60;;;1.10;;
22656;SDS011;11495;55.610;12.100;2023-07-16T03:47:02;1.08;;;0.80;;
22656;SDS011;11495;55.610;12.100;2023-07-16T03:49:27;2.50;;;1.30;;
22656;SDS011;11495;55.610;12.100;2023-07-16T03:51:52;2.07;;;0.97;;
22656;SDS011;11495;55.610;12.100;2023-07-16T03:54:18;1.63;;;1.17;;
22656;SDS011;11495;55.610;12.100;2023-07-16T03:56:43;1.47;;;1.03;;
22656;SDS011;11495;55.610;12.100;2023-07-16T03:59:08;2.75;;;1.30;;
22656;SDS011;11495;55.610;12.100;2023-07-16T04:01:34;1.87;;;1.33;;
22656;SDS011;11495;55.610;12.100;2023-07-16T04:03:59;4.22;;;1.15;;
22656;SDS011;11495;55.610;12.100;2023-07-16T04:06:24;2.53;;;1.10;;
22656;SDS011;11495;55.610;12.100;2023-07-16T04:08:49;1.60;;;1.40;;
22656;SDS011;11495;55.610;12.100;2023-07-16T04:11:15;1.42;;;0.85;;
22656;SDS011;11495;55.610;12.100;2023-07-16T04:13:40;1.73;;;0.93;;
22656;SDS011;11495;55.610;12.100;2023-07-16T04:16:05;1.73;;;0.87;;
22656;SDS011;11495;55.610;12.100;2023-07-16T04:18:30;1.98;;;1.00;;
22656;SDS011;11495;55.610;12.100;2023-07-16T04:20:56;3.87;;;1.10;;
22656;SDS011;11495;55.610;12.100;2023-07-16T04:23:21;2.33;;;0.80;;
22656;SDS011;11495;55.610;12.100;2023-07-16T04:25:47;1.87;;;1.00;;
22656;SDS011;11495;55.610;12.100;2023-07-16T04:28:12;3.25;;;0.98;;
22656;SDS011;11495;55.610;12.100;2023-07-16T04:30:37;1.42;;;0.90;;
22656;SDS011;11495;55.610;12.100;2023-07-16T04:33:03;4.95;;;1.37;;
22656;SDS011;11495;55.610;12.100;2023-07-16T04:35:28;4.65;;;1.12;;
22656;SDS011;11495;55.610;12.100;2023-07-16T04:37:53;1.73;;;1.17;;
22656;SDS011;11495;55.610;12.100;2023-07-16T04:40:19;2.22;;;1.05;;
22656;SDS011;11495;55.610;12.100;2023-07-16T04:42:44;2.63;;;0.90;;
22656;SDS011;11495;55.610;12.100;2023-07-16T04:45:09;1.73;;;1.10;;
22656;SDS011;11495;55.610;12.100;2023-07-16T04:47:34;3.10;;;1.50;;
22656;SDS011;11495;55.610;12.100;2023-07-16T04:50:00;1.62;;;1.37;;
22656;SDS011;11495;55.610;12.100;2023-07-16T04:52:25;2.72;;;0.85;;
22656;SDS011;11495;55.610;12.100;2023-07-16T04:54:51;3.03;;;1.00;;
22656;SDS011;11495;55.610;12.100;2023-07-16T04:57:16;3.83;;;1.47;;
22656;SDS011;11495;55.610;12.100;2023-07-16T04:59:41;2.37;;;1.27;;
22656;SDS011;11495;55.610;12.100;2023-07-16T05:02:06;2.53;;;1.30;;
22656;SDS011;11495;55.610;12.100;2023-07-16T05:04:32;1.58;;;1.23;;
22656;SDS011;11495;55.610;12.100;2023-07-16T05:06:57;5.05;;;1.33;;
22656;SDS011;11495;55.610;12.100;2023-07-16T05:09:23;4.97;;;2.30;;
22656;SDS011;11495;55.610;12.100;2023-07-16T05:11:48;2.33;;;1.20;;
22656;SDS011;11495;55.610;12.100;2023-07-16T05:14:13;5.73;;;1.40;;
22656;SDS011;11495;55.610;12.100;2023-07-16T05:16:38;5.40;;;1.50;;
22656;SDS011;11495;55.610;12.100;2023-07-16T05:19:04;5.87;;;1.43;;
22656;SDS011;11495;55.610;12.100;2023-07-16T05:21:29;3.30;;;1.03;;
22656;SDS011;11495;55.610;12.100;2023-07-16T05:23:54;4.17;;;1.53;;
22656;SDS011;11495;55.610;12.100;2023-07-16T05:26:19;3.10;;;1.60;;
22656;SDS011;11495;55.610;12.100;2023-07-16T05:28:45;3.25;;;1.33;;
22656;SDS011;11495;55.610;12.100;2023-07-16T05:31:10;2.83;;;1.10;;
22656;SDS011;11495;55.610;12.100;2023-07-16T05:33:35;3.17;;;1.07;;
22656;SDS011;11495;55.610;12.100;2023-07-16T05:36:00;3.77;;;1.23;;
22656;SDS011;11495;55.610;12.100;2023-07-16T05:38:26;1.30;;;1.20;;
22656;SDS011;11495;55.610;12.100;2023-07-16T05:40:51;6.27;;;1.63;;
22656;SDS011;11495;55.610;12.100;2023-07-16T05:43:16;2.97;;;1.47;;
22656;SDS011;11495;55.610;12.100;2023-07-16T05:45:41;2.40;;;1.00;;
22656;SDS011;11495;55.610;12.100;2023-07-16T05:48:07;3.53;;;1.58;;
22656;SDS011;11495;55.610;12.100;2023-07-16T05:50:32;2.93;;;1.13;;
22656;SDS011;11495;55.610;12.100;2023-07-16T05:52:57;4.77;;;1.60;;
22656;SDS011;11495;55.610;12.100;2023-07-16T05:55:23;3.05;;;1.65;;
22656;SDS011;11495;55.610;12.100;2023-07-16T05:57:48;2.87;;;1.40;;
22656;SDS011;11495;55.610;12.100;2023-07-16T06:00:14;3.15;;;1.25;;
22656;SDS011;11495;55.610;12.100;2023-07-16T06:02:39;5.62;;;1.58;;
22656;SDS011;11495;55.610;12.100;2023-07-16T06:05:05;9.75;;;2.15;;
22656;SDS011;11495;55.610;12.100;2023-07-16T06:07:30;4.35;;;1.05;;
22656;SDS011;11495;55.610;12.100;2023-07-16T06:09:56;7.47;;;2.15;;
22656;SDS011;11495;55.610;12.100;2023-07-16T06:12:22;1.73;;;1.27;;
22656;SDS011;11495;55.610;12.100;2023-07-16T06:14:47;3.37;;;1.58;;
22656;SDS011;11495;55.610;12.100;2023-07-16T06:17:12;8.93;;;2.03;;
22656;SDS011;11495;55.610;12.100;2023-07-16T06:19:37;6.53;;;1.93;;
22656;SDS011;11495;55.610;12.100;2023-07-16T06:22:03;4.17;;;1.50;;
22656;SDS011;11495;55.610;12.100;2023-07-16T06:24:28;3.70;;;1.40;;
22656;SDS011;11495;55.610;12.100;2023-07-16T06:26:53;2.47;;;1.37;;
22656;SDS011;11495;55.610;12.100;2023-07-16T06:29:18;4.37;;;1.80;;
22656;SDS011;11495;55.610;12.100;2023-07-16T06:31:53;4.50;;;1.70;;
22656;SDS011;11495;55.610;12.100;2023-07-16T06:34:18;7.60;;;1.73;;
22656;SDS011;11495;55.610;12.100;2023-07-16T06:36:44;3.67;;;1.97;;
22656;SDS011;11495;55.610;12.100;2023-07-16T06:39:09;2.67;;;1.57;;
22656;SDS011;11495;55.610;12.100;2023-07-16T06:41:34;3.07;;;2.07;;
22656;SDS011;11495;55.610;12.100;2023-07-16T06:43:59;4.90;;;1.87;;
22656;SDS011;11495;55.610;12.100;2023-07-16T06:46:25;5.63;;;2.13;;
22656;SDS011;11495;55.610;12.100;2023-07-16T06:48:50;6.65;;;2.37;;
22656;SDS011;11495;55.610;12.100;2023-07-16T06:51:15;3.70;;;1.92;;
22656;SDS011;11495;55.610;12.100;2023-07-16T06:53:41;3.55;;;2.10;;
22656;SDS011;11495;55.610;12.100;2023-07-16T06:56:06;8.53;;;2.57;;
22656;SDS011;11495;55.610;12.100;2023-07-16T06:58:32;5.10;;;2.40;;
22656;SDS011;11495;55.610;12.100;2023-07-16T07:00:58;5.40;;;2.42;;
22656;SDS011;11495;55.610;12.100;2023-07-16T07:03:23;3.42;;;2.20;;
22656;SDS011;11495;55.610;12.100;2023-07-16T07:05:49;3.00;;;2.20;;
22656;SDS011;11495;55.610;12.100;2023-07-16T07:08:14;4.27;;;2.33;;
22656;SDS011;11495;55.610;12.100;2023-07-16T07:10:39;6.30;;;2.20;;
22656;SDS011;11495;55.610;12.100;2023-07-16T07:13:04;4.22;;;2.10;;
22656;SDS011;11495;55.610;12.100;2023-07-16T07:15:30;5.53;;;2.03;;
22656;SDS011;11495;55.610;12.100;2023-07-16T07:17:55;2.40;;;1.80;;
22656;SDS011;11495;55.610;12.100;2023-07-16T07:20:20;4.55;;;2.12;;
22656;SDS011;11495;55.610;12.100;2023-07-16T07:22:45;4.07;;;2.15;;
22656;SDS011;11495;55.610;12.100;2023-07-16T07:25:11;5.60;;;1.87;;
22656;SDS011;11495;55.610;12.100;2023-07-16T07:27:36;13.75;;;3.00;;
22656;SDS011;11495;55.610;12.100;2023-07-16T07:30:01;5.20;;;1.97;;
22656;SDS011;11495;55.610;12.100;2023-07-16T07:32:28;3.50;;;1.77;;
22656;SDS011;11495;55.610;12.100;2023-07-16T07:34:54;7.07;;;2.75;;
22656;SDS011;11495;55.610;12.100;2023-07-16T07:37:19;8.97;;;3.07;;
22656;SDS011;11495;55.610;12.100;2023-07-16T07:39:44;5.72;;;2.17;;
22656;SDS011;11495;55.610;12.100;2023-07-16T07:42:12;3.28;;;2.00;;
22656;SDS011;11495;55.610;12.100;2023-07-16T07:44:38;3.37;;;1.70;;
22656;SDS011;11495;55.610;12.100;2023-07-16T07:47:03;3.00;;;2.00;;
22656;SDS011;11495;55.610;12.100;2023-07-16T07:49:29;6.55;;;1.92;;
22656;SDS011;11495;55.610;12.100;2023-07-16T07:51:54;7.23;;;2.50;;
22656;SDS011;11495;55.610;12.100;2023-07-16T07:54:20;5.65;;;2.87;;
22656;SDS011;11495;55.610;12.100;2023-07-16T07:56:45;2.78;;;1.80;;
22656;SDS011;11495;55.610;12.100;2023-07-16T07:59:11;2.37;;;1.67;;
22656;SDS011;11495;55.610;12.100;2023-07-16T08:01:36;6.43;;;2.50;;
22656;SDS011;11495;55.610;12.100;2023-07-16T08:04:02;3.50;;;2.12;;
22656;SDS011;11495;55.610;12.100;2023-07-16T08:06:27;2.92;;;2.00;;
22656;SDS011;11495;55.610;12.100;2023-07-16T08:08:52;4.20;;;2.27;;
22656;SDS011;11495;55.610;12.100;2023-07-16T08:11:18;8.23;;;2.80;;
22656;SDS011;11495;55.610;12.100;2023-07-16T08:13:43;5.20;;;2.53;;
22656;SDS011;11495;55.610;12.100;2023-07-16T08:16:08;4.60;;;2.35;;
22656;SDS011;11495;55.610;12.100;2023-07-16T08:18:34;4.20;;;1.87;;
22656;SDS011;11495;55.610;12.100;2023-07-16T08:20:59;3.72;;;2.25;;
22656;SDS011;11495;55.610;12.100;2023-07-16T08:23:25;9.20;;;2.75;;
22656;SDS011;11495;55.610;12.100;2023-07-16T08:25:50;4.27;;;2.00;;
22656;SDS011;11495;55.610;12.100;2023-07-16T08:28:16;5.68;;;2.72;;
22656;SDS011;11495;55.610;12.100;2023-07-16T08:30:41;5.28;;;2.25;;
22656;SDS011;11495;55.610;12.100;2023-07-16T08:33:07;2.83;;;2.10;;
22656;SDS011;11495;55.610;12.100;2023-07-16T08:35:32;6.47;;;2.30;;
22656;SDS011;11495;55.610;12.100;2023-07-16T08:37:57;3.45;;;2.00;;
22656;SDS011;11495;55.610;12.100;2023-07-16T08:40:22;3.40;;;1.90;;
22656;SDS011;11495;55.610;12.100;2023-07-16T08:42:48;5.87;;;2.10;;
22656;SDS011;11495;55.610;12.100;2023-07-16T08:45:14;3.42;;;2.20;;
22656;SDS011;11495;55.610;12.100;2023-07-16T08:47:40;4.15;;;2.28;;
22656;SDS011;11495;55.610;12.100;2023-07-16T08:50:05;3.43;;;2.33;;
22656;SDS011;11495;55.610;12.100;2023-07-16T08:52:30;3.40;;;1.87;;
22656;SDS011;11495;55.610;12.100;2023-07-16T08:54:56;4.30;;;2.37;;
22656;SDS011;11495;55.610;12.100;2023-07-16T08:57:21;5.15;;;2.10;;
22656;SDS011;11495;55.610;12.100;2023-07-16T08:59:50;3.90;;;2.10;;
22656;SDS011;11495;55.610;12.100;2023-07-16T09:02:19;3.05;;;1.70;;
22656;SDS011;11495;55.610;12.100;2023-07-16T09:04:48;4.00;;;2.05;;
22656;SDS011;11495;55.610;12.100;2023-07-16T09:07:13;2.80;;;1.90;;
22656;SDS011;11495;55.610;12.100;2023-07-16T09:09:39;4.12;;;1.62;;
22656;SDS011;11495;55.610;12.100;2023-07-16T09:12:04;6.53;;;2.30;;
22656;SDS011;11495;55.610;12.100;2023-07-16T09:14:30;6.03;;;2.37;;
22656;SDS011;11495;55.610;12.100;2023-07-16T09:16:55;5.43;;;2.10;;
22656;SDS011;11495;55.610;12.100;2023-07-16T09:19:21;4.00;;;2.07;;
22656;SDS011;11495;55.610;12.100;2023-07-16T09:21:47;2.65;;;1.87;;
22656;SDS011;11495;55.610;12.100;2023-07-16T09:24:12;2.40;;;1.50;;
22656;SDS011;11495;55.610;12.100;2023-07-16T09:26:37;6.30;;;2.20;;
22656;SDS011;11495;55.610;12.100;2023-07-16T09:29:06;3.47;;;2.22;;
22656;SDS011;11495;55.610;12.100;2023-07-16T09:31:32;3.95;;;2.70;;
22656;SDS011;11495;55.610;12.100;2023-07-16T09:33:58;4.57;;;2.00;;
22656;SDS011;11495;55.610;12.100;2023-07-16T09:36:24;5.72;;;2.50;;
22656;SDS011;11495;55.610;12.100;2023-07-16T09:38:50;5.72;;;2.17;;
22656;SDS011;11495;55.610;12.100;2023-07-16T09:41:16;2.45;;;1.65;;
22656;SDS011;11495;55.610;12.100;2023-07-16T09:43:42;4.78;;;2.33;;
22656;SDS011;11495;55.610;12.100;2023-07-16T09:46:07;4.55;;;2.12;;
22656;SDS011;11495;55.610;12.100;2023-07-16T09:48:33;3.40;;;1.85;;
22656;SDS011;11495;55.610;12.100;2023-07-16T09:50:58;3.53;;;1.65;;
22656;SDS011;11495;55.610;12.100;2023-07-16T09:53:23;2.37;;;1.67;;
22656;SDS011;11495;55.610;12.100;2023-07-16T09:55:49;3.20;;;1.37;;
22656;SDS011;11495;55.610;12.100;2023-07-16T09:58:17;3.97;;;1.83;;
22656;SDS011;11495;55.610;12.100;2023-07-16T10:00:44;4.30;;;2.40;;
22656;SDS011;11495;55.610;12.100;2023-07-16T10:03:10;6.72;;;2.90;;
22656;SDS011;11495;55.610;12.100;2023-07-16T10:05:36;2.42;;;2.08;;
22656;SDS011;11495;55.610;12.100;2023-07-16T10:08:04;2.92;;;2.12;;
22656;SDS011;11495;55.610;12.100;2023-07-16T10:10:42;5.13;;;2.40;;
22656;SDS011;11495;55.610;12.100;2023-07-16T10:13:08;3.97;;;2.33;;
22656;SDS011;11495;55.610;12.100;2023-07-16T10:15:36;4.53;;;2.17;;
22656;SDS011;11495;55.610;12.100;2023-07-16T10:18:01;5.70;;;2.60;;
22656;SDS011;11495;55.610;12.100;2023-07-16T10:20:34;3.12;;;2.30;;
22656;SDS011;11495;55.610;12.100;2023-07-16T10:23:20;4.47;;;1.83;;
22656;SDS011;11495;55.610;12.100;2023-07-16T10:26:00;2.25;;;1.70;;
22656;SDS011;11495;55.610;12.100;2023-07-16T10:28:26;3.78;;;1.80;;
22656;SDS011;11495;55.610;12.100;2023-07-16T10:30:52;5.75;;;2.08;;
22656;SDS011;11495;55.610;12.100;2023-07-16T10:33:17;5.40;;;2.87;;
22656;SDS011;11495;55.610;12.100;2023-07-16T10:35:44;4.10;;;2.10;;
22656;SDS011;11495;55.610;12.100;2023-07-16T10:38:10;4.60;;;2.47;;
22656;SDS011;11495;55.610;12.100;2023-07-16T10:40:39;3.17;;;1.70;;
22656;SDS011;11495;55.610;12.100;2023-07-16T10:43:05;3.17;;;2.15;;
22656;SDS011;11495;55.610;12.100;2023-07-16T10:45:31;6.20;;;1.95;;
22656;SDS011;11495;55.610;12.100;2023-07-16T10:47:56;4.33;;;2.47;;
22656;SDS011;11495;55.610;12.100;2023-07-16T10:50:21;4.73;;;1.90;;
22656;SDS011;11495;55.610;12.100;2023-07-16T10:52:50;4.97;;;2.40;;
22656;SDS011;11495;55.610;12.100;2023-07-16T10:55:15;4.03;;;2.15;;
22656;SDS011;11495;55.610;12.100;2023-07-16T10:57:40;4.33;;;2.63;;
22656;SDS011;11495;55.610;12.100;2023-07-16T11:00:06;4.10;;;2.60;;
22656;SDS011;11495;55.610;12.100;2023-07-16T11:02:38;8.65;;;2.28;;
22656;SDS011;11495;55.610;12.100;2023-07-16T11:05:05;3.97;;;2.08;;
22656;SDS011;11495;55.610;12.100;2023-07-16T11:07:30;4.93;;;2.12;;
22656;SDS011;11495;55.610;12.100;2023-07-16T11:09:56;6.90;;;2.60;;
22656;SDS011;11495;55.610;12.100;2023-07-16T11:12:21;3.05;;;2.12;;
22656;SDS011;11495;55.610;12.100;2023-07-16T11:14:51;6.15;;;2.17;;
22656;SDS011;11495;55.610;12.100;2023-07-16T11:17:16;5.70;;;2.58;;
22656;SDS011;11495;55.610;12.100;2023-07-16T11:19:46;7.05;;;2.87;;
22656;SDS011;11495;55.610;12.100;2023-07-16T11:22:12;6.28;;;3.03;;
22656;SDS011;11495;55.610;12.100;2023-07-16T11:24:45;8.27;;;2.45;;
22656;SDS011;11495;55.610;12.100;2023-07-16T11:29:56;5.35;;;2.72;;
22656;SDS011;11495;55.610;12.100;2023-07-16T11:35:00;8.00;;;2.78;;
22656;SDS011;11495;55.610;12.100;2023-07-16T11:37:26;4.10;;;2.22;;
22656;SDS011;11495;55.610;12.100;2023-07-16T11:39:59;7.12;;;2.90;;
22656;SDS011;11495;55.610;12.100;2023-07-16T11:42:31;4.07;;;2.45;;
22656;SDS011;11495;55.610;12.100;2023-07-16T11:44:57;4.32;;;2.70;;
22656;SDS011;11495;55.610;12.100;2023-07-16T11:47:23;6.47;;;2.50;;
22656;SDS011;11495;55.610;12.100;2023-07-16T11:49:48;4.03;;;2.12;;
22656;SDS011;11495;55.610;12.100;2023-07-16T11:52:14;3.15;;;2.15;;
22656;SDS011;11495;55.610;12.100;2023-07-16T11:54:39;4.95;;;2.12;;
22656;SDS011;11495;55.610;12.100;2023-07-16T11:57:05;7.05;;;3.47;;
22656;SDS011;11495;55.610;12.100;2023-07-16T11:59:30;7.60;;;3.05;;
22656;SDS011;11495;55.610;12.100;2023-07-16T12:01:55;5.07;;;2.53;;
22656;SDS011;11495;55.610;12.100;2023-07-16T12:04:21;2.28;;;1.77;;
22656;SDS011;11495;55.610;12.100;2023-07-16T12:06:46;3.60;;;2.23;;
22656;SDS011;11495;55.610;12.100;2023-07-16T12:09:11;5.55;;;2.30;;
22656;SDS011;11495;55.610;12.100;2023-07-16T12:11:37;4.60;;;2.53;;
22656;SDS011;11495;55.610;12.100;2023-07-16T12:14:03;5.40;;;2.20;;
22656;SDS011;11495;55.610;12.100;2023-07-16T12:16:28;4.37;;;2.37;;
22656;SDS011;11495;55.610;12.100;2023-07-16T12:18:54;2.37;;;2.10;;
22656;SDS011;11495;55.610;12.100;2023-07-16T12:21:19;3.57;;;2.20;;
22656;SDS011;11495;55.610;12.100;2023-07-16T12:23:44;4.17;;;2.07;;
22656;SDS011;11495;55.610;12.100;2023-07-16T12:26:09;2.53;;;1.50;;
22656;SDS011;11495;55.610;12.100;2023-07-16T12:28:35;4.73;;;1.90;;
22656;SDS011;11495;55.610;12.100;2023-07-16T12:31:00;4.93;;;2.23;;
22656;SDS011;11495;55.610;12.100;2023-07-16T12:33:25;3.03;;;1.90;;
22656;SDS011;11495;55.610;12.100;2023-07-16T12:35:50;4.05;;;2.35;;
22656;SDS011;11495;55.610;12.100;2023-07-16T12:38:16;6.77;;;2.40;;
22656;SDS011;11495;55.610;12.100;2023-07-16T12:40:41;7.00;;;1.90;;
22656;SDS011;11495;55.610;12.100;2023-07-16T12:43:06;2.57;;;1.97;;
22656;SDS011;11495;55.610;12.100;2023-07-16T12:45:32;4.00;;;1.92;;
22656;SDS011;11495;55.610;12.100;2023-07-16T12:47:57;8.23;;;3.10;;
22656;SDS011;11495;55.610;12.100;2023-07-16T12:50:23;3.67;;;2.20;;
22656;SDS011;11495;55.610;12.100;2023-07-16T12:52:48;2.47;;;1.77;;
22656;SDS011;11495;55.610;12.100;2023-07-16T12:55:13;5.07;;;1.95;;
22656;SDS011;11495;55.610;12.100;2023-07-16T12:57:39;3.17;;;1.95;;
22656;SDS011;11495;55.610;12.100;2023-07-16T13:00:04;8.25;;;2.05;;
22656;SDS011;11495;55.610;12.100;2023-07-16T13:02:30;4.37;;;1.90;;
22656;SDS011;11495;55.610;12.100;2023-07-16T13:04:55;2.80;;;2.00;;
22656;SDS011;11495;55.610;12.100;2023-07-16T13:07:20;3.22;;;2.00;;
22656;SDS011;11495;55.610;12.100;2023-07-16T13:09:46;3.05;;;1.58;;
22656;SDS011;11495;55.610;12.100;2023-07-16T13:12:11;3.10;;;1.87;;
22656;SDS011;11495;55.610;12.100;2023-07-16T13:14:36;6.13;;;1.97;;
22656;SDS011;11495;55.610;12.100;2023-07-16T13:17:01;5.87;;;2.50;;
22656;SDS011;11495;55.610;12.100;2023-07-16T13:19:29;5.50;;;1.90;;
22656;SDS011;11495;55.610;12.100;2023-07-16T13:21:54;4.00;;;1.80;;
22656;SDS011;11495;55.610;12.100;2023-07-16T13:24:19;3.10;;;2.33;;
22656;SDS011;11495;55.610;12.100;2023-07-16T13:26:45;4.63;;;1.97;;
22656;SDS011;11495;55.610;12.100;2023-07-16T13:29:10;3.57;;;1.80;;
22656;SDS011;11495;55.610;12.100;2023-07-16T13:31:35;2.00;;;1.80;;
22656;SDS011;11495;55.610;12.100;2023-07-16T13:34:00;5.55;;;2.00;;
22656;SDS011;11495;55.610;12.100;2023-07-16T13:36:26;4.33;;;1.83;;
22656;SDS011;11495;55.610;12.100;2023-07-16T13:38:51;5.18;;;1.95;;
22656;SDS011;11495;55.610;12.100;2023-07-16T13:41:16;2.83;;;2.27;;
22656;SDS011;11495;55.610;12.100;2023-07-16T13:43:42;4.67;;;1.83;;
22656;SDS011;11495;55.610;12.100;2023-07-16T13:46:07;6.10;;;1.70;;
22656;SDS011;11495;55.610;12.100;2023-07-16T13:48:32;3.37;;;1.77;;
22656;SDS011;11495;55.610;12.100;2023-07-16T13:50:57;4.43;;;2.05;;
22656;SDS011;11495;55.610;12.100;2023-07-16T13:53:23;4.25;;;1.65;;
22656;SDS011;11495;55.610;12.100;2023-07-16T13:55:48;5.43;;;1.73;;
22656;SDS011;11495;55.610;12.100;2023-07-16T13:58:13;4.35;;;1.80;;
22656;SDS011;11495;55.610;12.100;2023-07-16T14:00:39;5.43;;;2.15;;
22656;SDS011;11495;55.610;12.100;2023-07-16T14:03:05;4.25;;;2.05;;
22656;SDS011;11495;55.610;12.100;2023-07-16T14:05:31;3.67;;;1.70;;
22656;SDS011;11495;55.610;12.100;2023-07-16T14:07:59;4.62;;;2.10;;
22656;SDS011;11495;55.610;12.100;2023-07-16T14:10:25;4.32;;;1.80;;
22656;SDS011;11495;55.610;12.100;2023-07-16T14:12:50;4.32;;;1.98;;
22656;SDS011;11495;55.610;12.100;2023-07-16T14:15:15;3.70;;;2.13;;
22656;SDS011;11495;55.610;12.100;2023-07-16T14:17:40;4.10;;;2.12;;
22656;SDS011;11495;55.610;12.100;2023-07-16T14:20:06;2.80;;;1.50;;
22656;SDS011;11495;55.610;12.100;2023-07-16T14:22:31;3.75;;;1.80;;
22656;SDS011;11495;55.610;12.100;2023-07-16T14:24:57;3.57;;;2.03;;
22656;SDS011;11495;55.610;12.100;2023-07-16T14:27:22;3.87;;;1.85;;
22656;SDS011;11495;55.610;12.100;2023-07-16T14:29:48;2.53;;;1.60;;
22656;SDS011;11495;55.610;12.100;2023-07-16T14:32:13;2.17;;;1.70;;
22656;SDS011;11495;55.610;12.100;2023-07-16T14:34:38;4.60;;;2.30;;
22656;SDS011;11495;55.610;12.100;2023-07-16T14:37:04;1.50;;;1.40;;
22656;SDS011;11495;55.610;12.100;2023-07-16T14:39:29;3.35;;;2.33;;